sensor_id;sensor_type;location;lat;lon;timestamp;temperature;humidity
40932;DHT22;36257;46.052;12.540;2023-11-21T00:01:02;9.80;99.90
40932;DHT22;36257;46.052;12.540;2023-11-21T00:03:30;9.80;99.90
40932;DHT22;36257;46.052;12.540;2023-11-21T00:05:56;9.90;99.90
40932;DHT22;36257;46.052;12.540;2023-11-21T00:08:21;9.90;99.90
40932;DHT22;36257;46.052;12.540;2023-11-21T00:10:47;9.90;99.90
40932;DHT22;36257;46.052;12.540;2023-11-21T00:13:13;9.80;99.90
40932;DHT22;36257;46.052;12.540;2023-11-21T00:15:39;9.90;99.90
40932;DHT22;36257;46.052;12.540;2023-11-21T00:18:06;9.80;99.90
40932;DHT22;36257;46.052;12.540;2023-11-21T00:20:32;9.80;99.90
40932;DHT22;36257;46.052;12.540;2023-11-21T00:22:57;9.80;99.90
40932;DHT22;36257;46.052;12.540;2023-11-21T00:25:23;9.80;99.90
40932;DHT22;36257;46.052;12.540;2023-11-21T00:27:50;9.80;99.90
40932;DHT22;36257;46.052;12.540;2023-11-21T00:30:16;9.80;99.90
40932;DHT22;36257;46.052;12.540;2023-11-21T00:32:42;10.00;99.90
40932;DHT22;36257;46.052;12.540;2023-11-21T00:35:08;10.00;99.90
40932;DHT22;36257;46.052;12.540;2023-11-21T00:37:34;9.90;99.90
40932;DHT22;36257;46.052;12.540;2023-11-21T00:40:00;9.80;99.90
40932;DHT22;36257;46.052;12.540;2023-11-21T00:42:28;9.80;99.90
40932;DHT22;36257;46.052;12.540;2023-11-21T00:44:53;9.80;99.90
40932;DHT22;36257;46.052;12.540;2023-11-21T00:47:19;9.80;99.90
40932;DHT22;36257;46.052;12.540;2023-11-21T00:49:44;9.80;99.90
40932;DHT22;36257;46.052;12.540;2023-11-21T00:52:10;9.80;99.90
40932;DHT22;36257;46.052;12.540;2023-11-21T00:54:36;9.70;99.90
40932;DHT22;36257;46.052;12.540;2023-11-21T00:57:01;9.70;99.90
40932;DHT22;36257;46.052;12.540;2023-11-21T00:59:27;9.70;99.90
40932;DHT22;36257;46.052;12.540;2023-11-21T01:01:52;9.80;99.90
40932;DHT22;36257;46.052;12.540;2023-11-21T01:04:19;9.90;99.90
40932;DHT22;36257;46.052;12.540;2023-11-21T01:06:45;9.80;99.90
40932;DHT22;36257;46.052;12.540;2023-11-21T01:09:10;9.70;99.90
40932;DHT22;36257;46.052;12.540;2023-11-21T01:11:36;9.60;99.90
40932;DHT22;36257;46.052;12.540;2023-11-21T01:14:03;9.70;99.90
40932;DHT22;36257;46.052;12.540;2023-11-21T01:16:29;9.80;99.90
40932;DHT22;36257;46.052;12.540;2023-11-21T01:18:56;9.90;99.90
40932;DHT22;36257;46.052;12.540;2023-11-21T01:21:22;9.90;99.90
40932;DHT22;36257;46.052;12.540;2023-11-21T01:23:48;9.90;99.90
40932;DHT22;36257;46.052;12.540;2023-11-21T01:26:13;9.80;99.90
40932;DHT22;36257;46.052;12.540;2023-11-21T01:28:39;9.80;99.90
40932;DHT22;36257;46.052;12.540;2023-11-21T01:31:05;9.80;99.90
40932;DHT22;36257;46.052;12.540;2023-11-21T01:33:32;9.90;99.90
40932;DHT22;36257;46.052;12.540;2023-11-21T01:35:58;9.90;99.90
40932;DHT22;36257;46.052;12.540;2023-11-21T01:38:25;9.80;99.90
40932;DHT22;36257;46.052;12.540;2023-11-21T01:40:51;9.90;99.90
40932;DHT22;36257;46.052;12.540;2023-11-21T01:43:16;9.90;99.90
40932;DHT22;36257;46.052;12.540;2023-11-21T01:45:42;9.90;99.90
40932;DHT22;36257;46.052;12.540;2023-11-21T01:48:08;9.90;99.90
40932;DHT22;36257;46.052;12.540;2023-11-21T01:50:34;9.90;99.90
40932;DHT22;36257;46.052;12.540;2023-11-21T01:53:00;9.80;99.90
40932;DHT22;36257;46.052;12.540;2023-11-21T01:55:27;9.90;99.90
40932;DHT22;36257;46.052;12.540;2023-11-21T01:57:54;9.80;99.90
40932;DHT22;36257;46.052;12.540;2023-11-21T02:00:22;9.80;99.90
40932;DHT22;36257;46.052;12.540;2023-11-21T02:02:49;9.80;99.90
40932;DHT22;36257;46.052;12.540;2023-11-21T02:05:16;9.80;99.90
40932;DHT22;36257;46.052;12.540;2023-11-21T02:07:43;9.90;99.90
40932;DHT22;36257;46.052;12.540;2023-11-21T02:10:10;9.90;99.90
40932;DHT22;36257;46.052;12.540;2023-11-21T02:12:40;9.90;99.90
40932;DHT22;36257;46.052;12.540;2023-11-21T02:15:08;9.90;99.90
40932;DHT22;36257;46.052;12.540;2023-11-21T02:17:43;9.90;99.90
40932;DHT22;36257;46.052;12.540;2023-11-21T02:20:11;9.90;99.90
40932;DHT22;36257;46.052;12.540;2023-11-21T02:22:41;10.00;99.90
40932;DHT22;36257;46.052;12.540;2023-11-21T02:25:08;10.10;99.90
40932;DHT22;36257;46.052;12.540;2023-11-21T02:27:33;10.20;99.90
40932;DHT22;36257;46.052;12.540;2023-11-21T02:29:59;10.20;99.90
40932;DHT22;36257;46.052;12.540;2023-11-21T02:32:26;10.30;99.90
40932;DHT22;36257;46.052;12.540;2023-11-21T02:34:52;10.40;99.90
40932;DHT22;36257;46.052;12.540;2023-11-21T02:37:21;10.40;99.90
40932;DHT22;36257;46.052;12.540;2023-11-21T02:39:47;10.40;99.80
40932;DHT22;36257;46.052;12.540;2023-11-21T02:42:12;10.40;99.40
40932;DHT22;36257;46.052;12.540;2023-11-21T02:44:38;10.50;98.70
40932;DHT22;36257;46.052;12.540;2023-11-21T02:47:04;10.60;98.40
40932;DHT22;36257;46.052;12.540;2023-11-21T02:49:29;10.60;98.70
40932;DHT22;36257;46.052;12.540;2023-11-21T02:51:56;10.60;99.10
40932;DHT22;36257;46.052;12.540;2023-11-21T02:54:21;10.60;99.90
40932;DHT22;36257;46.052;12.540;2023-11-21T02:56:48;10.60;99.90
40932;DHT22;36257;46.052;12.540;2023-11-21T02:59:15;10.50;99.90
40932;DHT22;36257;46.052;12.540;2023-11-21T03:01:41;10.50;99.90
40932;DHT22;36257;46.052;12.540;2023-11-21T03:04:06;10.50;99.90
40932;DHT22;36257;46.052;12.540;2023-11-21T03:06:32;10.50;99.90
40932;DHT22;36257;46.052;12.540;2023-11-21T03:08:59;10.40;99.90
40932;DHT22;36257;46.052;12.540;2023-11-21T03:11:25;10.40;99.90
40932;DHT22;36257;46.052;12.540;2023-11-21T03:13:50;10.30;99.90
40932;DHT22;36257;46.052;12.540;2023-11-21T03:16:16;10.30;99.90
40932;DHT22;36257;46.052;12.540;2023-11-21T03:18:42;10.30;99.90
40932;DHT22;36257;46.052;12.540;2023-11-21T03:21:08;10.20;99.90
40932;DHT22;36257;46.052;12.540;2023-11-21T03:23:35;10.10;99.90
40932;DHT22;36257;46.052;12.540;2023-11-21T03:26:01;10.20;99.90
40932;DHT22;36257;46.052;12.540;2023-11-21T03:28:27;10.20;99.90
40932;DHT22;36257;46.052;12.540;2023-11-21T03:30:53;10.20;99.90
40932;DHT22;36257;46.052;12.540;2023-11-21T03:33:19;10.40;99.90
40932;DHT22;36257;46.052;12.540;2023-11-21T03:35:44;10.50;99.90
40932;DHT22;36257;46.052;12.540;2023-11-21T03:38:10;10.40;99.90
40932;DHT22;36257;46.052;12.540;2023-11-21T03:40:36;10.30;99.90
40932;DHT22;36257;46.052;12.540;2023-11-21T03:43:02;10.40;99.90
40932;DHT22;36257;46.052;12.540;2023-11-21T03:45:27;10.40;99.90
40932;DHT22;36257;46.052;12.540;2023-11-21T03:47:53;10.40;99.90
40932;DHT22;36257;46.052;12.540;2023-11-21T03:50:18;10.40;99.90
40932;DHT22;36257;46.052;12.540;2023-11-21T03:52:44;10.50;99.90
40932;DHT22;36257;46.052;12.540;2023-11-21T03:55:10;10.50;99.90
40932;DHT22;36257;46.052;12.540;2023-11-21T03:57:36;10.40;99.90
40932;DHT22;36257;46.052;12.540;2023-11-21T04:00:02;10.40;99.90
40932;DHT22;36257;46.052;12.540;2023-11-21T04:02:29;10.30;99.90
40932;DHT22;36257;46.052;12.540;2023-11-21T04:04:57;10.20;99.90
40932;DHT22;36257;46.052;12.540;2023-11-21T04:07:22;10.20;99.90
40932;DHT22;36257;46.052;12.540;2023-11-21T04:09:48;10.20;99.90
40932;DHT22;36257;46.052;12.540;2023-11-21T04:12:14;10.20;99.90
40932;DHT22;36257;46.052;12.540;2023-11-21T04:14:39;10.30;99.90
40932;DHT22;36257;46.052;12.540;2023-11-21T04:17:05;10.40;99.90
40932;DHT22;36257;46.052;12.540;2023-11-21T04:19:31;10.40;99.90
40932;DHT22;36257;46.052;12.540;2023-11-21T04:21:56;10.50;99.90
40932;DHT22;36257;46.052;12.540;2023-11-21T04:24:22;10.40;99.90
40932;DHT22;36257;46.052;12.540;2023-11-21T04:26:48;10.40;99.90
40932;DHT22;36257;46.052;12.540;2023-11-21T04:29:13;10.30;99.90
40932;DHT22;36257;46.052;12.540;2023-11-21T04:31:39;10.30;99.90
40932;DHT22;36257;46.052;12.540;2023-11-21T04:34:04;10.50;99.90
40932;DHT22;36257;46.052;12.540;2023-11-21T04:36:30;10.40;99.90
40932;DHT22;36257;46.052;12.540;2023-11-21T04:38:56;10.40;99.90
40932;DHT22;36257;46.052;12.540;2023-11-21T04:41:22;10.30;99.90
40932;DHT22;36257;46.052;12.540;2023-11-21T04:43:48;10.20;99.90
40932;DHT22;36257;46.052;12.540;2023-11-21T04:46:14;10.10;99.90
40932;DHT22;36257;46.052;12.540;2023-11-21T04:48:40;10.10;99.90
40932;DHT22;36257;46.052;12.540;2023-11-21T04:51:06;10.10;99.90
40932;DHT22;36257;46.052;12.540;2023-11-21T04:53:32;10.10;99.90
40932;DHT22;36257;46.052;12.540;2023-11-21T04:55:57;10.10;99.90
40932;DHT22;36257;46.052;12.540;2023-11-21T04:58:24;10.10;99.90
40932;DHT22;36257;46.052;12.540;2023-11-21T05:00:49;10.10;99.90
40932;DHT22;36257;46.052;12.540;2023-11-21T05:03:15;10.10;99.90
40932;DHT22;36257;46.052;12.540;2023-11-21T05:05:41;10.10;99.90
40932;DHT22;36257;46.052;12.540;2023-11-21T05:08:06;10.10;99.90
40932;DHT22;36257;46.052;12.540;2023-11-21T05:10:32;10.00;99.90
40932;DHT22;36257;46.052;12.540;2023-11-21T05:12:57;10.00;99.90
40932;DHT22;36257;46.052;12.540;2023-11-21T05:15:23;10.00;99.90
40932;DHT22;36257;46.052;12.540;2023-11-21T05:17:50;10.00;99.90
40932;DHT22;36257;46.052;12.540;2023-11-21T05:20:17;10.00;99.90
40932;DHT22;36257;46.052;12.540;2023-11-21T05:22:49;10.00;99.90
40932;DHT22;36257;46.052;12.540;2023-11-21T05:25:15;10.00;99.90
40932;DHT22;36257;46.052;12.540;2023-11-21T05:27:40;10.10;99.90
40932;DHT22;36257;46.052;12.540;2023-11-21T05:30:06;10.20;99.90
40932;DHT22;36257;46.052;12.540;2023-11-21T05:32:34;10.20;99.90
40932;DHT22;36257;46.052;12.540;2023-11-21T05:35:00;10.20;99.90
40932;DHT22;36257;46.052;12.540;2023-11-21T05:37:26;10.30;99.90
40932;DHT22;36257;46.052;12.540;2023-11-21T05:39:56;10.30;99.90
40932;DHT22;36257;46.052;12.540;2023-11-21T05:42:30;10.30;99.90
40932;DHT22;36257;46.052;12.540;2023-11-21T05:44:56;10.30;99.90
40932;DHT22;36257;46.052;12.540;2023-11-21T05:47:24;10.30;99.90
40932;DHT22;36257;46.052;12.540;2023-11-21T05:49:51;10.30;99.90
40932;DHT22;36257;46.052;12.540;2023-11-21T05:52:17;10.30;99.90
40932;DHT22;36257;46.052;12.540;2023-11-21T05:54:43;10.30;99.90
40932;DHT22;36257;46.052;12.540;2023-11-21T05:57:09;10.30;99.90
40932;DHT22;36257;46.052;12.540;2023-11-21T05:59:34;10.30;99.90
40932;DHT22;36257;46.052;12.540;2023-11-21T06:02:00;10.20;99.90
40932;DHT22;36257;46.052;12.540;2023-11-21T06:04:27;10.20;99.90
40932;DHT22;36257;46.052;12.540;2023-11-21T06:06:53;10.30;99.90
40932;DHT22;36257;46.052;12.540;2023-11-21T06:09:19;10.30;99.90
40932;DHT22;36257;46.052;12.540;2023-11-21T06:11:45;10.30;99.90
40932;DHT22;36257;46.052;12.540;2023-11-21T06:14:10;10.20;99.90
40932;DHT22;36257;46.052;12.540;2023-11-21T06:16:36;10.20;99.90
40932;DHT22;36257;46.052;12.540;2023-11-21T06:19:02;10.20;99.90
40932;DHT22;36257;46.052;12.540;2023-11-21T06:21:27;10.30;99.90
40932;DHT22;36257;46.052;12.540;2023-11-21T06:23:54;10.30;99.90
40932;DHT22;36257;46.052;12.540;2023-11-21T06:26:22;10.30;99.90
40932;DHT22;36257;46.052;12.540;2023-11-21T06:28:48;10.40;99.90
40932;DHT22;36257;46.052;12.540;2023-11-21T06:31:16;10.40;99.90
40932;DHT22;36257;46.052;12.540;2023-11-21T06:33:43;10.50;99.90
40932;DHT22;36257;46.052;12.540;2023-11-21T06:36:09;10.60;99.90
40932;DHT22;36257;46.052;12.540;2023-11-21T06:38:37;10.60;99.90
40932;DHT22;36257;46.052;12.540;2023-11-21T06:41:02;10.60;99.90
40932;DHT22;36257;46.052;12.540;2023-11-21T06:43:29;10.50;99.90
40932;DHT22;36257;46.052;12.540;2023-11-21T06:45:57;10.50;99.90
40932;DHT22;36257;46.052;12.540;2023-11-21T06:48:22;10.50;99.90
40932;DHT22;36257;46.052;12.540;2023-11-21T06:50:48;10.50;99.90
40932;DHT22;36257;46.052;12.540;2023-11-21T06:53:14;10.60;99.90
40932;DHT22;36257;46.052;12.540;2023-11-21T06:55:40;10.60;99.90
40932;DHT22;36257;46.052;12.540;2023-11-21T06:58:06;10.70;99.90
40932;DHT22;36257;46.052;12.540;2023-11-21T07:00:31;10.70;99.90
40932;DHT22;36257;46.052;12.540;2023-11-21T07:02:57;10.70;99.90
40932;DHT22;36257;46.052;12.540;2023-11-21T07:05:22;10.60;99.90
40932;DHT22;36257;46.052;12.540;2023-11-21T07:07:49;10.60;99.90
40932;DHT22;36257;46.052;12.540;2023-11-21T07:10:15;10.70;99.90
40932;DHT22;36257;46.052;12.540;2023-11-21T07:12:42;10.70;99.90
40932;DHT22;36257;46.052;12.540;2023-11-21T07:15:08;10.70;99.90
40932;DHT22;36257;46.052;12.540;2023-11-21T07:17:36;10.80;99.90
40932;DHT22;36257;46.052;12.540;2023-11-21T07:20:03;10.80;99.90
40932;DHT22;36257;46.052;12.540;2023-11-21T07:22:28;10.90;99.90
40932;DHT22;36257;46.052;12.540;2023-11-21T07:24:55;11.00;99.90
40932;DHT22;36257;46.052;12.540;2023-11-21T07:41:00;11.40;99.90
40932;DHT22;36257;46.052;12.540;2023-11-21T07:43:30;11.40;99.90
40932;DHT22;36257;46.052;12.540;2023-11-21T07:46:01;11.40;99.90
40932;DHT22;36257;46.052;12.540;2023-11-21T07:48:28;11.40;99.90
40932;DHT22;36257;46.052;12.540;2023-11-21T07:50:54;11.30;99.90
40932;DHT22;36257;46.052;12.540;2023-11-21T07:53:19;11.30;99.90
40932;DHT22;36257;46.052;12.540;2023-11-21T07:55:45;11.20;99.90
40932;DHT22;36257;46.052;12.540;2023-11-21T07:58:12;11.20;99.90
40932;DHT22;36257;46.052;12.540;2023-11-21T08:00:38;11.20;99.90
40932;DHT22;36257;46.052;12.540;2023-11-21T08:03:05;11.20;99.90
40932;DHT22;36257;46.052;12.540;2023-11-21T08:05:31;11.20;99.90
40932;DHT22;36257;46.052;12.540;2023-11-21T08:07:57;11.20;99.90
40932;DHT22;36257;46.052;12.540;2023-11-21T08:10:23;11.30;99.90
40932;DHT22;36257;46.052;12.540;2023-11-21T08:12:49;11.10;99.90
40932;DHT22;36257;46.052;12.540;2023-11-21T08:15:16;11.10;99.90
40932;DHT22;36257;46.052;12.540;2023-11-21T08:17:41;11.00;99.90
40932;DHT22;36257;46.052;12.540;2023-11-21T08:20:07;11.00;99.90
40932;DHT22;36257;46.052;12.540;2023-11-21T08:22:36;11.10;99.90
40932;DHT22;36257;46.052;12.540;2023-11-21T08:25:01;11.20;99.90
40932;DHT22;36257;46.052;12.540;2023-11-21T08:27:29;11.20;99.90
40932;DHT22;36257;46.052;12.540;2023-11-21T08:29:55;11.20;99.90
40932;DHT22;36257;46.052;12.540;2023-11-21T08:32:22;11.30;99.90
40932;DHT22;36257;46.052;12.540;2023-11-21T11:03:09;13.30;95.10
40932;DHT22;36257;46.052;12.540;2023-11-21T11:05:41;13.40;94.90
40932;DHT22;36257;46.052;12.540;2023-11-21T11:08:12;13.50;94.50
40932;DHT22;36257;46.052;12.540;2023-11-21T11:10:38;13.60;94.80
40932;DHT22;36257;46.052;12.540;2023-11-21T11:13:04;13.60;95.30
40932;DHT22;36257;46.052;12.540;2023-11-21T11:15:32;13.70;94.30
40932;DHT22;36257;46.052;12.540;2023-11-21T11:17:59;13.80;94.10
40932;DHT22;36257;46.052;12.540;2023-11-21T11:20:31;13.90;94.10
40932;DHT22;36257;46.052;12.540;2023-11-21T11:28:26;14.50;92.70
40932;DHT22;36257;46.052;12.540;2023-11-21T11:34:06;15.10;90.20
40932;DHT22;36257;46.052;12.540;2023-11-21T11:36:56;15.20;87.90
40932;DHT22;36257;46.052;12.540;2023-11-21T11:39:41;15.10;87.60
40932;DHT22;36257;46.052;12.540;2023-11-21T11:42:15;15.10;86.90
40932;DHT22;36257;46.052;12.540;2023-11-21T11:47:31;14.90;87.10
40932;DHT22;36257;46.052;12.540;2023-11-21T11:50:11;14.80;87.00
40932;DHT22;36257;46.052;12.540;2023-11-21T11:52:42;14.70;86.90
40932;DHT22;36257;46.052;12.540;2023-11-21T11:55:15;14.70;86.60
40932;DHT22;36257;46.052;12.540;2023-11-21T11:57:46;14.60;85.30
40932;DHT22;36257;46.052;12.540;2023-11-21T12:00:20;14.60;85.80
40932;DHT22;36257;46.052;12.540;2023-11-21T12:02:54;14.50;85.30
40932;DHT22;36257;46.052;12.540;2023-11-21T12:13:12;14.30;85.70
40932;DHT22;36257;46.052;12.540;2023-11-21T12:15:39;14.30;85.00
40932;DHT22;36257;46.052;12.540;2023-11-21T12:18:06;14.30;85.00
40932;DHT22;36257;46.052;12.540;2023-11-21T12:20:32;14.30;85.60
40932;DHT22;36257;46.052;12.540;2023-11-21T12:23:04;14.20;85.70
40932;DHT22;36257;46.052;12.540;2023-11-21T12:25:31;14.30;85.20
40932;DHT22;36257;46.052;12.540;2023-11-21T12:27:59;14.30;85.90
40932;DHT22;36257;46.052;12.540;2023-11-21T12:30:28;14.40;86.40
40932;DHT22;36257;46.052;12.540;2023-11-21T12:32:56;14.40;85.80
40932;DHT22;36257;46.052;12.540;2023-11-21T12:35:25;14.30;86.00
40932;DHT22;36257;46.052;12.540;2023-11-21T12:37:51;14.30;85.70
40932;DHT22;36257;46.052;12.540;2023-11-21T12:40:18;14.30;86.00
40932;DHT22;36257;46.052;12.540;2023-11-21T12:42:48;14.30;85.90
40932;DHT22;36257;46.052;12.540;2023-11-21T12:47:54;14.30;85.80
40932;DHT22;36257;46.052;12.540;2023-11-21T12:50:25;14.30;85.50
40932;DHT22;36257;46.052;12.540;2023-11-21T12:52:57;14.30;85.60
40932;DHT22;36257;46.052;12.540;2023-11-21T12:55:24;14.40;86.50
40932;DHT22;36257;46.052;12.540;2023-11-21T12:57:55;14.40;89.60
40932;DHT22;36257;46.052;12.540;2023-11-21T13:00:31;14.20;93.00
40932;DHT22;36257;46.052;12.540;2023-11-21T13:02:59;14.10;93.90
40932;DHT22;36257;46.052;12.540;2023-11-21T13:07:51;13.90;95.80
40932;DHT22;36257;46.052;12.540;2023-11-21T13:10:29;13.80;96.20
40932;DHT22;36257;46.052;12.540;2023-11-21T13:13:00;13.70;96.90
40932;DHT22;36257;46.052;12.540;2023-11-21T13:15:29;13.60;97.50
40932;DHT22;36257;46.052;12.540;2023-11-21T13:17:57;13.60;97.90
40932;DHT22;36257;46.052;12.540;2023-11-21T13:20:27;13.60;97.90
40932;DHT22;36257;46.052;12.540;2023-11-21T13:22:55;13.60;97.30
40932;DHT22;36257;46.052;12.540;2023-11-21T13:25:33;13.60;97.30
40932;DHT22;36257;46.052;12.540;2023-11-21T13:28:00;13.50;97.50
40932;DHT22;36257;46.052;12.540;2023-11-21T13:30:28;13.50;97.80
40932;DHT22;36257;46.052;12.540;2023-11-21T13:33:05;13.60;97.40
40932;DHT22;36257;46.052;12.540;2023-11-21T13:35:37;13.50;97.20
40932;DHT22;36257;46.052;12.540;2023-11-21T13:38:07;13.50;97.20
40932;DHT22;36257;46.052;12.540;2023-11-21T13:40:36;13.50;96.80
40932;DHT22;36257;46.052;12.540;2023-11-21T13:43:16;13.50;96.40
40932;DHT22;36257;46.052;12.540;2023-11-21T13:45:44;13.40;96.10
40932;DHT22;36257;46.052;12.540;2023-11-21T13:48:12;13.50;96.00
40932;DHT22;36257;46.052;12.540;2023-11-21T13:50:50;13.40;96.20
40932;DHT22;36257;46.052;12.540;2023-11-21T13:53:24;13.40;96.60
40932;DHT22;36257;46.052;12.540;2023-11-21T13:55:51;13.30;96.80
40932;DHT22;36257;46.052;12.540;2023-11-21T13:58:20;13.30;97.30
40932;DHT22;36257;46.052;12.540;2023-11-21T14:00:58;13.20;97.60
40932;DHT22;36257;46.052;12.540;2023-11-21T14:03:23;13.20;97.90
40932;DHT22;36257;46.052;12.540;2023-11-21T14:05:58;13.20;98.10
40932;DHT22;36257;46.052;12.540;2023-11-21T14:08:26;13.20;98.90
40932;DHT22;36257;46.052;12.540;2023-11-21T14:10:57;13.00;99.90
40932;DHT22;36257;46.052;12.540;2023-11-21T14:13:26;13.00;99.90
40932;DHT22;36257;46.052;12.540;2023-11-21T14:15:53;13.10;99.80
40932;DHT22;36257;46.052;12.540;2023-11-21T14:18:26;13.00;98.40
40932;DHT22;36257;46.052;12.540;2023-11-21T14:21:16;13.00;97.80
40932;DHT22;36257;46.052;12.540;2023-11-21T14:23:42;13.00;97.40
40932;DHT22;36257;46.052;12.540;2023-11-21T14:26:08;12.90;97.60
40932;DHT22;36257;46.052;12.540;2023-11-21T14:28:34;12.90;97.30
40932;DHT22;36257;46.052;12.540;2023-11-21T14:31:01;13.00;97.20
40932;DHT22;36257;46.052;12.540;2023-11-21T14:33:28;13.10;96.60
40932;DHT22;36257;46.052;12.540;2023-11-21T14:35:54;12.90;96.90
40932;DHT22;36257;46.052;12.540;2023-11-21T14:38:20;12.80;97.80
40932;DHT22;36257;46.052;12.540;2023-11-21T14:40:46;12.80;97.90
40932;DHT22;36257;46.052;12.540;2023-11-21T14:43:12;12.80;98.60
40932;DHT22;36257;46.052;12.540;2023-11-21T14:45:38;12.80;98.60
40932;DHT22;36257;46.052;12.540;2023-11-21T14:48:04;12.80;98.50
40932;DHT22;36257;46.052;12.540;2023-11-21T14:50:30;12.70;96.30
40932;DHT22;36257;46.052;12.540;2023-11-21T14:53:05;12.60;96.20
40932;DHT22;36257;46.052;12.540;2023-11-21T14:55:35;12.60;96.20
40932;DHT22;36257;46.052;12.540;2023-11-21T14:58:16;12.60;95.30
40932;DHT22;36257;46.052;12.540;2023-11-21T15:00:58;12.50;94.30
40932;DHT22;36257;46.052;12.540;2023-11-21T15:03:25;12.50;94.20
40932;DHT22;36257;46.052;12.540;2023-11-21T15:05:57;12.40;95.20
40932;DHT22;36257;46.052;12.540;2023-11-21T15:08:24;12.40;95.00
40932;DHT22;36257;46.052;12.540;2023-11-21T15:10:57;12.40;94.20
40932;DHT22;36257;46.052;12.540;2023-11-21T15:13:23;12.40;93.50
40932;DHT22;36257;46.052;12.540;2023-11-21T15:15:51;12.30;93.30
40932;DHT22;36257;46.052;12.540;2023-11-21T15:18:19;12.30;92.40
40932;DHT22;36257;46.052;12.540;2023-11-21T15:20:45;12.30;92.10
40932;DHT22;36257;46.052;12.540;2023-11-21T15:23:11;12.30;92.40
40932;DHT22;36257;46.052;12.540;2023-11-21T15:25:38;12.20;92.60
40932;DHT22;36257;46.052;12.540;2023-11-21T15:28:04;12.30;92.00
40932;DHT22;36257;46.052;12.540;2023-11-21T15:30:32;12.20;91.40
40932;DHT22;36257;46.052;12.540;2023-11-21T15:32:59;12.20;91.50
40932;DHT22;36257;46.052;12.540;2023-11-21T15:35:24;12.10;91.50
40932;DHT22;36257;46.052;12.540;2023-11-21T15:37:50;12.10;91.90
40932;DHT22;36257;46.052;12.540;2023-11-21T15:40:16;12.00;92.40
40932;DHT22;36257;46.052;12.540;2023-11-21T15:42:42;12.00;92.40
40932;DHT22;36257;46.052;12.540;2023-11-21T15:45:10;12.10;92.90
40932;DHT22;36257;46.052;12.540;2023-11-21T15:47:36;12.10;92.60
40932;DHT22;36257;46.052;12.540;2023-11-21T15:50:02;12.10;92.40
40932;DHT22;36257;46.052;12.540;2023-11-21T15:52:29;12.10;92.20
40932;DHT22;36257;46.052;12.540;2023-11-21T15:54:55;11.90;92.20
40932;DHT22;36257;46.052;12.540;2023-11-21T15:57:21;11.80;92.60
40932;DHT22;36257;46.052;12.540;2023-11-21T15:59:47;11.80;92.80
40932;DHT22;36257;46.052;12.540;2023-11-21T16:02:13;11.70;93.20
40932;DHT22;36257;46.052;12.540;2023-11-21T16:04:41;11.80;93.10
40932;DHT22;36257;46.052;12.540;2023-11-21T16:07:08;11.70;93.50
40932;DHT22;36257;46.052;12.540;2023-11-21T16:09:35;11.70;93.80
40932;DHT22;36257;46.052;12.540;2023-11-21T16:12:05;11.70;94.00
40932;DHT22;36257;46.052;12.540;2023-11-21T16:14:35;11.70;94.40
40932;DHT22;36257;46.052;12.540;2023-11-21T16:17:08;11.70;95.00
40932;DHT22;36257;46.052;12.540;2023-11-21T16:19:38;11.60;95.20
40932;DHT22;36257;46.052;12.540;2023-11-21T16:22:04;11.50;95.60
40932;DHT22;36257;46.052;12.540;2023-11-21T16:24:29;11.50;96.10
40932;DHT22;36257;46.052;12.540;2023-11-21T16:26:58;11.40;96.10
40932;DHT22;36257;46.052;12.540;2023-11-21T16:29:24;11.30;96.70
40932;DHT22;36257;46.052;12.540;2023-11-21T16:31:50;11.30;97.10
40932;DHT22;36257;46.052;12.540;2023-11-21T16:34:19;11.40;97.00
40932;DHT22;36257;46.052;12.540;2023-11-21T16:36:45;11.40;96.90
40932;DHT22;36257;46.052;12.540;2023-11-21T16:39:12;11.30;97.40
40932;DHT22;36257;46.052;12.540;2023-11-21T16:41:41;11.30;97.70
40932;DHT22;36257;46.052;12.540;2023-11-21T16:44:15;11.20;98.10
40932;DHT22;36257;46.052;12.540;2023-11-21T16:46:44;11.20;98.30
40932;DHT22;36257;46.052;12.540;2023-11-21T16:49:11;11.00;99.10
40932;DHT22;36257;46.052;12.540;2023-11-21T16:51:37;11.00;99.40
40932;DHT22;36257;46.052;12.540;2023-11-21T16:54:03;11.00;99.50
40932;DHT22;36257;46.052;12.540;2023-11-21T16:56:29;10.80;99.50
40932;DHT22;36257;46.052;12.540;2023-11-21T16:58:55;10.80;99.50
40932;DHT22;36257;46.052;12.540;2023-11-21T17:01:20;10.80;99.50
40932;DHT22;36257;46.052;12.540;2023-11-21T17:03:47;10.80;99.40
40932;DHT22;36257;46.052;12.540;2023-11-21T17:06:14;10.80;99.30
40932;DHT22;36257;46.052;12.540;2023-11-21T17:08:40;10.80;99.70
40932;DHT22;36257;46.052;12.540;2023-11-21T17:11:05;10.60;99.90
40932;DHT22;36257;46.052;12.540;2023-11-21T17:13:37;10.50;99.90
40932;DHT22;36257;46.052;12.540;2023-11-21T17:16:02;10.30;99.90
40932;DHT22;36257;46.052;12.540;2023-11-21T17:18:28;10.30;99.90
40932;DHT22;36257;46.052;12.540;2023-11-21T17:20:54;10.40;99.90
40932;DHT22;36257;46.052;12.540;2023-11-21T17:23:20;10.40;99.90
40932;DHT22;36257;46.052;12.540;2023-11-21T17:25:45;10.40;99.90
40932;DHT22;36257;46.052;12.540;2023-11-21T17:28:11;10.40;99.90
40932;DHT22;36257;46.052;12.540;2023-11-21T17:30:37;10.40;99.90
40932;DHT22;36257;46.052;12.540;2023-11-21T17:33:03;10.40;99.90
40932;DHT22;36257;46.052;12.540;2023-11-21T17:35:29;10.40;99.80
40932;DHT22;36257;46.052;12.540;2023-11-21T17:37:54;10.40;99.50
40932;DHT22;36257;46.052;12.540;2023-11-21T17:40:20;10.40;99.50
40932;DHT22;36257;46.052;12.540;2023-11-21T17:42:46;10.30;99.60
40932;DHT22;36257;46.052;12.540;2023-11-21T17:45:12;10.30;99.60
40932;DHT22;36257;46.052;12.540;2023-11-21T17:47:38;10.20;99.90
40932;DHT22;36257;46.052;12.540;2023-11-21T17:50:04;10.30;99.70
40932;DHT22;36257;46.052;12.540;2023-11-21T17:52:30;10.20;99.40
40932;DHT22;36257;46.052;12.540;2023-11-21T17:54:56;10.20;99.10
40932;DHT22;36257;46.052;12.540;2023-11-21T17:57:22;10.20;99.00
40932;DHT22;36257;46.052;12.540;2023-11-21T17:59:47;10.20;98.70
40932;DHT22;36257;46.052;12.540;2023-11-21T18:02:16;10.10;99.00
40932;DHT22;36257;46.052;12.540;2023-11-21T18:04:41;10.10;99.20
40932;DHT22;36257;46.052;12.540;2023-11-21T18:07:07;10.10;99.10
40932;DHT22;36257;46.052;12.540;2023-11-21T18:09:33;10.10;99.20
40932;DHT22;36257;46.052;12.540;2023-11-21T18:12:00;10.00;99.00
40932;DHT22;36257;46.052;12.540;2023-11-21T18:14:28;10.00;99.00
40932;DHT22;36257;46.052;12.540;2023-11-21T18:16:55;10.00;99.30
40932;DHT22;36257;46.052;12.540;2023-11-21T18:19:21;9.90;99.50
40932;DHT22;36257;46.052;12.540;2023-11-21T18:21:47;9.80;99.70
40932;DHT22;36257;46.052;12.540;2023-11-21T18:24:13;9.80;99.40